Terminal Aerodrome Forecast
Issued by NWS

Home | Current Version | Previous Version | Text Only | Print | Product List | Glossary On
Versions: 1 2 3 4 5 6 7 8 9 10 11 12 13
000
FTAK31 PAJN 271700
TAFAWG
TAF
PAWG 271732Z 2718/2818 27009KT P6SM VCSH SCT020 BKN035 OVC050
      TEMPO 2718/2721 -SHRA
     FM272100 27009KT P6SM -SHRA SCT020 BKN035 OVC050
     FM280600 30005KT P6SM BKN040 BKN100
      AMD LTD TO CLD VIS AND WIND 2806/2815=

USA.gov is the U.S. government's official web portal to all federal, state and local government web resources and services.